createdAt,value
2018-08-14T00:01:07.144Z,14.77
2018-08-14T00:03:34.492Z,15.67
2018-08-14T00:06:01.816Z,14.13
2018-08-14T00:08:29.176Z,15.20
2018-08-14T00:10:56.560Z,15.80
2018-08-14T00:13:23.953Z,14.80
2018-08-14T00:15:51.297Z,14.57
2018-08-14T00:18:18.879Z,16.90
2018-08-14T00:20:46.239Z,13.50
2018-08-14T00:23:13.583Z,15.70
2018-08-14T00:25:41.002Z,14.73
2018-08-14T00:28:09.635Z,14.60
2018-08-14T00:30:37.051Z,15.07
2018-08-14T00:33:04.459Z,16.30
2018-08-14T00:35:31.901Z,16.03
2018-08-14T00:37:59.217Z,19.73
2018-08-14T00:40:28.081Z,19.00
2018-08-14T00:42:57.663Z,16.47
2018-08-14T00:45:25.076Z,16.67
2018-08-14T00:47:52.479Z,14.97
2018-08-14T00:50:20.131Z,20.33
2018-08-14T00:52:47.678Z,17.90
2018-08-14T00:55:16.288Z,15.80
2018-08-14T00:57:44.146Z,15.37
2018-08-14T01:00:15.707Z,16.73
2018-08-14T01:02:43.038Z,16.73
2018-08-14T01:05:11.039Z,18.10
2018-08-14T01:07:38.466Z,17.83
2018-08-14T01:10:08.590Z,18.87
2018-08-14T01:12:36.184Z,17.07
2018-08-14T01:15:04.859Z,18.17
2018-08-14T01:17:32.459Z,17.23
2018-08-14T01:19:59.810Z,18.90
2018-08-14T01:22:27.169Z,23.93
2018-08-14T01:24:54.467Z,19.17
2018-08-14T01:27:21.797Z,22.80
2018-08-14T01:29:49.122Z,21.47
2018-08-14T01:32:16.443Z,20.37
2018-08-14T01:34:43.858Z,21.10
2018-08-14T01:37:11.200Z,19.63
2018-08-14T01:39:38.704Z,20.10
2018-08-14T01:42:06.039Z,22.87
2018-08-14T01:44:33.389Z,24.40
2018-08-14T01:47:00.754Z,43.90
2018-08-14T01:49:28.120Z,22.93
2018-08-14T01:51:55.472Z,22.60
2018-08-14T01:54:22.806Z,22.37
2018-08-14T01:56:50.110Z,23.57
2018-08-14T01:59:17.415Z,22.17
2018-08-14T02:01:44.827Z,21.07
2018-08-14T02:04:12.219Z,24.30
2018-08-14T02:06:39.583Z,25.00
2018-08-14T02:09:08.421Z,24.73
2018-08-14T02:11:35.847Z,23.33
2018-08-14T02:14:09.925Z,22.47
2018-08-14T02:16:37.286Z,27.90
2018-08-14T02:19:04.654Z,28.73
2018-08-14T02:21:32.436Z,28.60
2018-08-14T02:23:59.730Z,24.27
2018-08-14T02:26:27.048Z,25.43
2018-08-14T02:28:54.527Z,26.87
2018-08-14T02:31:21.848Z,28.83
2018-08-14T02:33:49.183Z,24.73
2018-08-14T02:36:16.531Z,26.07
2018-08-14T02:38:44.111Z,27.63
2018-08-14T02:41:11.446Z,27.53
2018-08-14T02:43:38.821Z,28.20
2018-08-14T02:46:06.380Z,28.00
2018-08-14T02:48:33.712Z,27.17
2018-08-14T02:51:01.075Z,26.13
2018-08-14T02:53:28.499Z,26.27
2018-08-14T02:55:55.860Z,30.57
2018-08-14T02:58:23.187Z,30.23
2018-08-14T03:00:50.527Z,27.80
2018-08-14T03:03:17.895Z,25.90
2018-08-14T03:05:45.207Z,31.03
2018-08-14T03:08:12.552Z,28.87
2018-08-14T03:10:39.902Z,26.07
2018-08-14T03:13:07.291Z,28.57
2018-08-14T03:15:34.635Z,26.27
2018-08-14T03:18:02.071Z,30.17
2018-08-14T03:20:29.484Z,29.93
2018-08-14T03:22:56.811Z,30.67
2018-08-14T03:25:24.171Z,32.80
2018-08-14T03:27:51.535Z,32.90
2018-08-14T03:30:18.900Z,30.53
2018-08-14T03:32:46.231Z,33.60
2018-08-14T03:35:14.798Z,30.73
2018-08-14T03:37:42.159Z,35.17
2018-08-14T03:40:14.738Z,33.03
2018-08-14T03:42:42.405Z,33.30
2018-08-14T03:45:09.714Z,30.87
2018-08-14T03:47:37.215Z,33.23
2018-08-14T03:50:05.080Z,37.17
2018-08-14T03:52:32.443Z,30.67
2018-08-14T03:54:59.791Z,32.60
2018-08-14T03:57:27.104Z,31.53
2018-08-14T03:59:54.467Z,33.43
2018-08-14T04:02:21.821Z,27.80
2018-08-14T04:04:49.155Z,30.40
2018-08-14T04:07:16.579Z,28.03
2018-08-14T04:09:43.912Z,28.83
2018-08-14T04:12:11.687Z,27.57
2018-08-14T04:14:39.020Z,29.83
2018-08-14T04:17:06.342Z,30.53
2018-08-14T04:19:33.659Z,29.50
2018-08-14T04:22:01.150Z,30.43
2018-08-14T04:24:28.456Z,31.47
2018-08-14T04:26:55.742Z,29.87
2018-08-14T04:29:23.035Z,30.13
2018-08-14T04:31:50.374Z,28.17
2018-08-14T04:34:17.698Z,29.83
2018-08-14T04:36:45.066Z,29.23
2018-08-14T04:39:12.455Z,29.37
2018-08-14T04:41:40.048Z,31.30
2018-08-14T04:44:07.597Z,37.07
2018-08-14T04:46:34.941Z,27.83
2018-08-14T04:49:02.281Z,28.63
2018-08-14T04:51:29.677Z,31.67
2018-08-14T04:53:57.065Z,29.13
2018-08-14T04:56:24.372Z,31.67
2018-08-14T04:58:51.703Z,28.80
2018-08-14T05:01:19.300Z,34.97
2018-08-14T05:03:46.621Z,30.07
2018-08-14T05:06:13.922Z,25.90
2018-08-14T05:08:41.367Z,34.57
2018-08-14T05:11:08.663Z,30.10
2018-08-14T05:13:39.959Z,35.03
2018-08-14T05:16:07.833Z,28.60
2018-08-14T05:18:35.155Z,25.77
2018-08-14T05:21:06.434Z,28.73
2018-08-14T05:23:40.550Z,25.93
2018-08-14T05:26:11.609Z,23.57
2018-08-14T05:28:42.226Z,23.00
2018-08-14T05:31:13.452Z,29.67
2018-08-14T05:33:45.003Z,25.97
2018-08-14T05:36:20.396Z,26.73
2018-08-14T05:39:00.113Z,23.57
2018-08-14T05:41:27.502Z,22.00
2018-08-14T05:43:54.869Z,22.67
2018-08-14T05:46:22.209Z,20.63
2018-08-14T05:48:49.510Z,24.23
2018-08-14T05:51:16.846Z,22.40
2018-08-14T05:53:44.244Z,20.77
2018-08-14T05:56:11.524Z,20.13
2018-08-14T05:58:38.895Z,18.23
2018-08-14T06:01:06.391Z,17.50
2018-08-14T06:03:33.879Z,18.23
2018-08-14T06:06:01.212Z,20.87
2018-08-14T06:08:28.562Z,13.57
2018-08-14T06:10:55.924Z,10.10
2018-08-14T06:13:23.336Z,14.87
2018-08-14T06:15:50.816Z,7.67
2018-08-14T06:18:18.160Z,7.87
2018-08-14T06:20:45.674Z,7.20
2018-08-14T06:23:13.360Z,6.70
2018-08-14T06:25:40.710Z,6.70
2018-08-14T06:28:08.095Z,4.10
2018-08-14T06:30:35.510Z,3.20
2018-08-14T06:33:03.335Z,7.50
2018-08-14T06:35:30.823Z,3.90
2018-08-14T06:37:58.149Z,2.80
2018-08-14T06:40:25.619Z,4.67
2018-08-14T06:42:53.123Z,5.40
2018-08-14T06:45:20.518Z,3.67
2018-08-14T06:47:47.901Z,3.93
2018-08-14T06:50:17.938Z,3.33
2018-08-14T06:52:45.371Z,2.57
2018-08-14T06:55:13.167Z,2.73
2018-08-14T06:57:41.949Z,2.83
2018-08-14T07:00:11.787Z,2.27
2018-08-14T07:02:39.307Z,3.23
2018-08-14T07:05:07.466Z,1.90
2018-08-14T07:07:34.876Z,2.23
2018-08-14T07:10:02.317Z,4.40
2018-08-14T07:12:29.737Z,6.43
2018-08-14T07:14:57.128Z,2.83
2018-08-14T07:17:24.552Z,4.93
2018-08-14T07:19:51.907Z,6.40
2018-08-14T07:22:19.404Z,8.07
2018-08-14T07:24:46.755Z,6.47
2018-08-14T07:27:14.166Z,3.63
2018-08-14T07:29:41.646Z,4.13
2018-08-14T07:32:09.063Z,2.83
2018-08-14T07:34:36.651Z,1.67
2018-08-14T07:37:04.110Z,4.07
2018-08-14T07:39:31.518Z,1.43
2018-08-14T07:41:59.857Z,3.37
2018-08-14T07:44:27.631Z,3.97
2018-08-14T07:46:55.010Z,3.43
2018-08-14T07:49:22.398Z,5.60
2018-08-14T07:51:49.767Z,2.33
2018-08-14T07:54:17.221Z,3.00
2018-08-14T07:56:44.652Z,5.33
2018-08-14T07:59:12.350Z,5.23
2018-08-14T08:01:40.521Z,2.17
2018-08-14T08:04:08.039Z,2.20
2018-08-14T08:06:35.509Z,4.10
2018-08-14T08:09:03.140Z,3.77
2018-08-14T08:11:30.568Z,5.13
2018-08-14T08:13:57.983Z,6.97
2018-08-14T08:16:25.406Z,4.07
2018-08-14T08:18:53.216Z,5.00
2018-08-14T08:21:20.686Z,3.07
2018-08-14T08:23:48.119Z,5.30
2018-08-14T08:26:15.635Z,4.77
2018-08-14T08:28:43.103Z,3.80
2018-08-14T08:31:10.539Z,10.00
2018-08-14T08:33:37.937Z,3.13
2018-08-14T08:36:05.300Z,2.50
2018-08-14T08:38:33.002Z,3.67
2018-08-14T08:41:00.419Z,5.20
2018-08-14T08:43:27.801Z,3.23
2018-08-14T08:45:55.189Z,4.00
2018-08-14T08:48:22.913Z,2.77
2018-08-14T08:50:50.721Z,4.23
2018-08-14T08:53:19.460Z,4.07
2018-08-14T08:55:47.212Z,4.50
2018-08-14T08:58:14.832Z,3.13
2018-08-14T09:00:42.309Z,3.83
2018-08-14T09:03:09.732Z,2.37
2018-08-14T09:05:37.192Z,8.83
2018-08-14T09:08:06.447Z,2.33
2018-08-14T09:10:33.907Z,2.37
2018-08-14T09:13:01.332Z,4.50
2018-08-14T09:15:28.747Z,3.30
2018-08-14T09:17:56.143Z,3.20
2018-08-14T09:20:23.590Z,2.33
2018-08-14T09:22:51.055Z,3.10
2018-08-14T09:25:18.541Z,4.10
2018-08-14T09:27:46.411Z,4.93
2018-08-14T09:30:15.499Z,3.47
2018-08-14T09:32:42.961Z,2.90
2018-08-14T09:35:11.784Z,2.03
2018-08-14T09:37:39.902Z,4.00
2018-08-14T09:40:09.515Z,4.67
2018-08-14T09:42:37.046Z,5.80
2018-08-14T09:45:05.107Z,4.20
2018-08-14T09:47:32.528Z,4.10
2018-08-14T09:50:00.002Z,3.13
2018-08-14T09:52:27.387Z,4.47
2018-08-14T09:54:54.791Z,2.57
2018-08-14T09:57:22.237Z,3.07
2018-08-14T09:59:49.638Z,3.70
2018-08-14T10:02:23.234Z,6.60
2018-08-14T10:04:56.427Z,3.00
2018-08-14T10:07:29.504Z,2.40
2018-08-14T10:09:56.946Z,2.70
2018-08-14T10:12:24.337Z,3.73
2018-08-14T10:14:57.556Z,3.83
2018-08-14T10:17:24.966Z,4.20
2018-08-14T10:19:52.366Z,4.00
2018-08-14T10:22:19.764Z,3.47
2018-08-14T10:24:47.223Z,4.97
2018-08-14T10:27:14.600Z,2.37
2018-08-14T10:29:41.985Z,2.93
2018-08-14T10:32:09.367Z,3.70
2018-08-14T10:34:36.728Z,3.03
2018-08-14T10:37:04.223Z,3.00
2018-08-14T10:39:31.612Z,2.67
2018-08-14T10:41:58.944Z,3.17
2018-08-14T10:44:26.418Z,4.47
2018-08-14T10:46:53.863Z,3.33
2018-08-14T10:49:21.302Z,5.60
2018-08-14T10:51:49.667Z,3.03
2018-08-14T10:54:17.109Z,2.93
2018-08-14T10:56:44.471Z,3.50
2018-08-14T10:59:13.466Z,4.77
2018-08-14T11:01:40.936Z,2.83
2018-08-14T11:04:08.349Z,2.20
2018-08-14T11:06:35.723Z,3.63
2018-08-14T11:09:04.091Z,1.50
2018-08-14T11:11:36.015Z,1.77
2018-08-14T11:14:03.391Z,3.27
2018-08-14T11:16:31.030Z,2.10
2018-08-14T11:18:58.344Z,2.23
2018-08-14T11:21:25.693Z,2.98
2018-08-14T11:23:53.229Z,2.73
2018-08-14T11:26:20.563Z,2.77
2018-08-14T11:28:47.999Z,4.10
2018-08-14T11:31:15.395Z,2.80
2018-08-14T11:33:42.762Z,3.58
2018-08-14T11:36:10.148Z,4.42
2018-08-14T11:38:37.636Z,2.40
2018-08-14T11:41:05.333Z,2.10
2018-08-14T11:43:32.689Z,2.17
2018-08-14T11:46:00.306Z,3.60
2018-08-14T11:48:27.664Z,3.83
2018-08-14T11:50:55.303Z,5.40
2018-08-14T11:53:22.726Z,2.58
2018-08-14T11:55:50.069Z,3.02
2018-08-14T11:58:17.479Z,3.55
2018-08-14T12:00:44.854Z,3.00
2018-08-14T12:03:12.238Z,3.62
2018-08-14T12:05:39.575Z,1.57
2018-08-14T12:08:06.890Z,4.33
2018-08-14T12:10:34.267Z,2.52
2018-08-14T12:13:01.789Z,1.60
2018-08-14T12:15:29.023Z,2.47
2018-08-14T12:17:56.371Z,2.90
2018-08-14T12:20:23.764Z,2.97
2018-08-14T12:22:51.159Z,2.43
2018-08-14T12:25:19.332Z,3.40
2018-08-14T12:27:47.417Z,2.70
2018-08-14T12:30:17.840Z,2.63
2018-08-14T12:32:45.618Z,3.97
2018-08-14T12:35:12.967Z,2.30
2018-08-14T12:37:40.461Z,2.08
2018-08-14T12:40:09.203Z,3.20
2018-08-14T12:42:36.965Z,5.43
2018-08-14T12:45:08.229Z,3.03
2018-08-14T12:47:35.558Z,3.55
2018-08-14T12:50:02.985Z,4.37
2018-08-14T12:52:30.417Z,2.60
2018-08-14T12:54:57.781Z,4.17
2018-08-14T12:57:25.096Z,4.33
2018-08-14T12:59:52.443Z,2.20
2018-08-14T13:02:19.780Z,2.47
2018-08-14T13:04:47.118Z,5.87
2018-08-14T13:07:14.476Z,3.27
2018-08-14T13:09:42.054Z,3.17
2018-08-14T13:12:09.405Z,3.47
2018-08-14T13:14:36.716Z,2.63
2018-08-14T13:17:04.029Z,4.30
2018-08-14T13:19:31.448Z,0.70
2018-08-14T13:21:58.948Z,3.17
2018-08-14T13:24:26.389Z,2.77
2018-08-14T13:26:53.738Z,1.97
2018-08-14T13:29:21.082Z,3.60
2018-08-14T13:31:48.431Z,1.90
2018-08-14T13:34:15.825Z,2.13
2018-08-14T13:36:43.152Z,2.70
2018-08-14T13:39:11.131Z,2.37
2018-08-14T13:41:38.550Z,3.70
2018-08-14T13:44:05.892Z,2.40
2018-08-14T13:46:33.404Z,1.50
2018-08-14T13:49:00.848Z,2.90
2018-08-14T13:51:28.271Z,1.37
2018-08-14T13:53:55.630Z,1.98
2018-08-14T13:56:23.155Z,1.33
2018-08-14T13:58:50.494Z,1.00
2018-08-14T14:01:17.812Z,3.22
2018-08-14T14:03:45.175Z,2.10
2018-08-14T14:06:12.536Z,3.17
2018-08-14T14:08:39.880Z,2.05
2018-08-14T14:11:07.442Z,1.97
2018-08-14T14:13:34.766Z,3.27
2018-08-14T14:16:02.071Z,1.60
2018-08-14T14:18:32.715Z,2.23
2018-08-14T14:21:00.236Z,2.90
2018-08-14T14:23:27.512Z,3.67
2018-08-14T14:25:54.851Z,2.43
2018-08-14T14:28:22.208Z,2.40
2018-08-14T14:30:49.673Z,3.90
2018-08-14T14:33:17.021Z,1.70
2018-08-14T14:35:44.477Z,3.97
2018-08-14T14:38:12.044Z,6.60
2018-08-14T14:40:39.688Z,2.13
2018-08-14T14:43:07.106Z,2.43
2018-08-14T14:45:34.736Z,1.67
2018-08-14T14:48:02.163Z,3.07
2018-08-14T14:50:29.580Z,2.60
2018-08-14T14:52:57.021Z,3.63
2018-08-14T14:55:24.355Z,2.60
2018-08-14T14:57:52.008Z,3.90
2018-08-14T15:00:20.678Z,2.40
2018-08-14T15:02:49.774Z,3.87
2018-08-14T15:05:17.450Z,4.40
2018-08-14T15:07:45.816Z,12.30
2018-08-14T15:10:13.143Z,3.97
2018-08-14T15:12:41.480Z,2.60
2018-08-14T15:15:08.809Z,5.27
2018-08-14T15:17:37.423Z,3.57
2018-08-14T15:20:08.397Z,4.77
2018-08-14T15:22:35.994Z,3.57
2018-08-14T15:25:04.937Z,4.10
2018-08-14T15:27:32.312Z,4.07
2018-08-14T15:30:11.240Z,3.60
2018-08-14T15:32:38.740Z,3.47
2018-08-14T15:35:06.100Z,4.13
2018-08-14T15:37:33.423Z,4.07
2018-08-14T15:40:00.763Z,5.50
2018-08-14T15:42:28.111Z,5.47
2018-08-14T15:44:55.487Z,3.73
2018-08-14T15:47:22.791Z,3.47
2018-08-14T15:49:50.179Z,4.40
2018-08-14T15:52:17.868Z,3.67
2018-08-14T15:54:45.204Z,4.77
2018-08-14T15:57:12.547Z,5.37
2018-08-14T15:59:39.955Z,4.90
2018-08-14T16:02:07.359Z,4.80
2018-08-14T16:04:34.789Z,3.73
2018-08-14T16:07:02.116Z,4.50
2018-08-14T16:09:29.538Z,3.83
2018-08-14T16:11:56.935Z,5.03
2018-08-14T16:14:24.363Z,5.33
2018-08-14T16:16:51.695Z,3.23
2018-08-14T16:19:19.023Z,3.23
2018-08-14T16:21:46.394Z,3.83
2018-08-14T16:24:15.316Z,3.00
2018-08-14T16:26:42.743Z,3.00
2018-08-14T16:29:10.330Z,3.10
2018-08-14T16:31:37.705Z,3.70
2018-08-14T16:34:05.368Z,3.63
2018-08-14T16:36:32.725Z,2.73
2018-08-14T16:39:00.040Z,3.80
2018-08-14T16:41:27.620Z,6.53
2018-08-14T16:43:55.055Z,3.93
2018-08-14T16:46:22.459Z,3.17
2018-08-14T16:48:49.826Z,3.20
2018-08-14T16:51:17.464Z,2.40
2018-08-14T16:53:46.335Z,3.10
2018-08-14T16:56:14.863Z,2.90
2018-08-14T16:58:42.247Z,3.13
2018-08-14T17:01:09.778Z,4.87
2018-08-14T17:03:37.113Z,3.50
2018-08-14T17:06:04.875Z,6.03
2018-08-14T17:08:32.251Z,4.13
2018-08-14T17:10:59.600Z,5.60
2018-08-14T17:13:26.950Z,4.83
2018-08-14T17:15:54.308Z,3.50
2018-08-14T17:18:21.934Z,3.07
2018-08-14T17:20:48.275Z,4.63
2018-08-14T17:23:15.614Z,4.10
2018-08-14T17:25:43.178Z,3.63
2018-08-14T17:28:10.580Z,4.20
2018-08-14T17:30:37.919Z,3.80
2018-08-14T17:33:05.644Z,3.87
2018-08-14T17:35:32.956Z,3.63
2018-08-14T17:38:00.277Z,4.43
2018-08-14T17:40:27.708Z,5.97
2018-08-14T17:42:55.132Z,3.83
2018-08-14T17:45:28.651Z,3.40
2018-08-14T17:47:57.359Z,3.93
2018-08-14T17:50:25.143Z,3.90
2018-08-14T17:52:52.491Z,3.83
2018-08-14T17:55:20.655Z,3.77
2018-08-14T17:57:48.020Z,4.83
2018-08-14T18:00:22.891Z,4.00
2018-08-14T18:02:52.043Z,4.13
2018-08-14T18:05:19.354Z,4.40
2018-08-14T18:07:46.947Z,3.70
2018-08-14T18:10:18.332Z,3.83
2018-08-14T18:12:45.963Z,4.83
2018-08-14T18:15:14.132Z,3.90
2018-08-14T18:17:41.482Z,5.77
2018-08-14T18:20:14.036Z,4.33
2018-08-14T18:22:41.418Z,4.17
2018-08-14T18:25:10.023Z,4.97
2018-08-14T18:27:37.427Z,5.17
2018-08-14T18:30:06.055Z,3.70
2018-08-14T18:32:33.437Z,3.90
2018-08-14T18:35:00.822Z,4.40
2018-08-14T18:37:28.194Z,4.83
2018-08-14T18:39:56.294Z,5.27
2018-08-14T18:42:23.690Z,4.50
2018-08-14T18:44:51.079Z,4.07
2018-08-14T18:47:18.871Z,5.40
2018-08-14T18:49:46.300Z,5.17
2018-08-14T18:52:13.729Z,4.97
2018-08-14T18:54:41.432Z,4.40
2018-08-14T18:57:08.807Z,4.13
2018-08-14T18:59:36.204Z,5.03
2018-08-14T19:02:04.440Z,5.40
2018-08-14T19:04:31.952Z,5.70
2018-08-14T19:06:59.338Z,5.17
2018-08-14T19:09:27.116Z,4.23
2018-08-14T19:11:54.551Z,3.80
2018-08-14T19:14:22.020Z,3.90
2018-08-14T19:16:49.408Z,5.17
2018-08-14T19:19:16.771Z,5.00
2018-08-14T19:21:44.179Z,4.00
2018-08-14T19:24:11.528Z,13.97
2018-08-14T19:26:38.971Z,3.37
2018-08-14T19:29:06.526Z,3.50
2018-08-14T19:31:33.880Z,2.97
2018-08-14T19:34:01.215Z,3.80
2018-08-14T19:36:28.615Z,4.53
2018-08-14T19:38:55.963Z,3.43
2018-08-14T19:41:23.299Z,4.80
2018-08-14T19:43:50.660Z,2.93
2018-08-14T19:46:18.044Z,3.53
2018-08-14T19:48:45.471Z,3.70
2018-08-14T19:51:12.861Z,3.70
2018-08-14T19:53:40.195Z,3.47
2018-08-14T19:56:07.591Z,3.57
2018-08-14T19:58:34.996Z,3.50
2018-08-14T20:01:02.452Z,3.50
2018-08-14T20:03:30.002Z,3.40
2018-08-14T20:05:57.367Z,4.53
2018-08-14T20:08:24.714Z,3.90
2018-08-14T20:10:52.164Z,5.13
2018-08-14T20:13:19.517Z,6.03
2018-08-14T20:15:52.703Z,4.47
2018-08-14T20:18:20.071Z,5.67
2018-08-14T20:20:47.402Z,5.23
2018-08-14T20:23:15.010Z,4.67
2018-08-14T20:25:42.511Z,4.50
2018-08-14T20:28:10.126Z,5.23
2018-08-14T20:30:37.508Z,4.27
2018-08-14T20:33:05.255Z,4.17
2018-08-14T20:35:32.667Z,4.60
2018-08-14T20:38:00.084Z,4.17
2018-08-14T20:40:27.476Z,4.70
2018-08-14T20:42:55.061Z,4.90
2018-08-14T20:45:22.508Z,4.73
2018-08-14T20:47:49.851Z,4.73
2018-08-14T20:50:18.474Z,5.23
2018-08-14T20:52:46.298Z,4.33
2018-08-14T20:55:14.201Z,4.63
2018-08-14T20:57:42.305Z,5.73
2018-08-14T21:00:16.561Z,4.70
2018-08-14T21:02:44.521Z,5.13
2018-08-14T21:05:12.035Z,4.10
2018-08-14T21:07:39.401Z,4.47
2018-08-14T21:10:07.334Z,4.30
2018-08-14T21:12:42.614Z,4.53
2018-08-14T21:15:15.786Z,4.33
2018-08-14T21:17:44.358Z,4.63
2018-08-14T21:20:14.298Z,4.10
2018-08-14T21:22:54.117Z,4.20
2018-08-14T21:25:21.572Z,4.30
2018-08-14T21:27:49.050Z,4.23
2018-08-14T21:30:17.611Z,3.90
2018-08-14T21:32:45.143Z,3.83
2018-08-14T21:35:14.927Z,5.57
2018-08-14T21:37:42.916Z,4.40
2018-08-14T21:40:12.825Z,4.03
2018-08-14T21:42:40.622Z,4.03
2018-08-14T21:45:09.930Z,4.17
2018-08-14T21:47:37.584Z,4.40
2018-08-14T21:50:05.152Z,4.10
2018-08-14T21:52:32.571Z,4.73
2018-08-14T21:54:59.885Z,5.40
2018-08-14T21:57:27.519Z,5.33
2018-08-14T21:59:55.087Z,4.80
2018-08-14T22:02:22.450Z,4.57
2018-08-14T22:04:49.976Z,4.23
2018-08-14T22:07:17.280Z,4.77
2018-08-14T22:09:44.652Z,4.03
2018-08-14T22:12:11.992Z,3.60
2018-08-14T22:14:39.352Z,4.20
2018-08-14T22:17:06.729Z,3.70
2018-08-14T22:19:34.100Z,4.73
2018-08-14T22:22:01.497Z,4.83
2018-08-14T22:24:28.892Z,4.43
2018-08-14T22:26:56.368Z,4.47
2018-08-14T22:29:23.788Z,4.90
2018-08-14T22:31:51.167Z,7.93
2018-08-14T22:34:18.614Z,4.40
2018-08-14T22:36:45.982Z,4.90
2018-08-14T22:39:13.372Z,4.73
2018-08-14T22:41:42.020Z,4.47
2018-08-14T22:44:09.380Z,8.57
2018-08-14T22:46:36.739Z,5.30
2018-08-14T22:49:04.312Z,5.73
2018-08-14T22:51:31.747Z,5.07
2018-08-14T22:53:59.206Z,5.30
2018-08-14T22:56:26.562Z,4.97
2018-08-14T22:58:53.912Z,5.33
2018-08-14T23:01:21.389Z,5.20
2018-08-14T23:03:50.560Z,5.77
2018-08-14T23:06:17.955Z,5.97
2018-08-14T23:08:45.335Z,5.17
2018-08-14T23:11:12.708Z,5.33
2018-08-14T23:13:40.119Z,5.43
2018-08-14T23:16:07.418Z,5.40
2018-08-14T23:18:35.929Z,6.23
2018-08-14T23:21:03.908Z,6.43
2018-08-14T23:23:31.279Z,6.03
2018-08-14T23:25:58.776Z,5.90
2018-08-14T23:28:26.280Z,5.40
2018-08-14T23:30:53.652Z,6.13
2018-08-14T23:33:21.099Z,6.47
2018-08-14T23:35:48.558Z,6.13
2018-08-14T23:38:15.949Z,7.70
2018-08-14T23:40:43.346Z,6.47
2018-08-14T23:43:10.715Z,8.03
2018-08-14T23:45:38.109Z,5.90
2018-08-14T23:48:05.487Z,6.27
2018-08-14T23:50:32.836Z,6.23
2018-08-14T23:53:00.151Z,5.80
2018-08-14T23:55:27.684Z,5.63
2018-08-14T23:57:55.043Z,6.10
